CNF weather

Tancredo Neves International Airport
Belo Horizonte, Minas Gerais, Brazil

Public forecast

Using degrees Celsius for public forecast. Weather courtesy of forecast.io.

METAR (pilot weather report)

Retrieved 2019/07/21 09:00 UTC (47 minutes ago):

SBCF 210900Z 09010KT CAVOK 13/11 Q1025

TAF (pilot weather forecast)

Retrieved 2019/07/21 06:00 UTC (4 hours ago):

TAF SBCF 210400Z 2106/2206 12010KT 9999 SCT040 TN11/2107Z TX21/2117Z TEMPO 2115/2121 04008KT BECMG 2202/2204 08003KT RMK PFY